General Aviation Weather

Text Reports

Enter one or more of the following location identifiers separated by a space:

Zip Code, Four-Character ICAO or Three-Character IATA airport codes.

METAR - Aviation Routine Weather Report
PAIK - Kiana, Alaska
Updated at 11:01 AM GMT op 22 mei 2015 (3:01 AM AKDT):
METAR PAIK 221101Z AUTO 00000KT 10SM CLR 02/01 A3018 RMK AO2 SLP263 T00220011 FZRANO PNO $
TAF - Terminal Area Forecast
PAIK - Kiana, Alaska
Updated at 11:01 AM GMT op 22 mei 2015 (3:01 AM AKDT):
No TAF is currently available for this location.
Decoded:
No decoded TAF is available.
PIREP - Pilot Weather Report
PAIK - Kiana, Alaska
Updated at 11:01 AM GMT op 22 mei 2015 (3:01 AM AKDT):
No PIREP is currently available for this location.
AIRMET - Airmens Meteorological Information
PAIK - Kiana, Alaska
Updated at 11:01 AM GMT op 22 mei 2015 (3:01 AM AKDT):
No AIRMET is currently available for this location.
SIGMET - Significant Meteorological Information
PAIK - Kiana, Alaska
Updated at 11:01 AM GMT op 22 mei 2015 (3:01 AM AKDT):
No SIGMET is currently available for this location.
NOTAM - Notice to Airmen
PAIK - Kiana, Alaska
Updated at 11:01 AM GMT op 22 mei 2015 (3:01 AM AKDT):
No NOTAM is currently available for this location.
Forecast Area
PAIK - Kiana, Alaska
Updated at 11:01 AM GMT op 22 mei 2015 (3:01 AM AKDT):
No NOTAM is currently available for this location.
Aviation Weather Maps